sensor_id;sensor_type;location;lat;lon;timestamp;P1;durP1;ratioP1;P2;durP2;ratioP2
6665;SDS011;3369;49.906;8.598;2023-05-07T00:00:25;1.23;;;1.20;;
6665;SDS011;3369;49.906;8.598;2023-05-07T00:02:51;1.20;;;1.10;;
6665;SDS011;3369;49.906;8.598;2023-05-07T00:05:17;1.20;;;1.10;;
6665;SDS011;3369;49.906;8.598;2023-05-07T00:07:42;1.03;;;0.97;;
6665;SDS011;3369;49.906;8.598;2023-05-07T00:10:09;1.23;;;1.10;;
6665;SDS011;3369;49.906;8.598;2023-05-07T00:12:37;1.00;;;1.00;;
6665;SDS011;3369;49.906;8.598;2023-05-07T00:15:03;1.33;;;1.17;;
6665;SDS011;3369;49.906;8.598;2023-05-07T00:17:29;1.10;;;1.10;;
6665;SDS011;3369;49.906;8.598;2023-05-07T00:19:55;1.00;;;1.00;;
6665;SDS011;3369;49.906;8.598;2023-05-07T00:22:21;0.90;;;0.90;;
6665;SDS011;3369;49.906;8.598;2023-05-07T00:24:46;1.30;;;1.20;;
6665;SDS011;3369;49.906;8.598;2023-05-07T00:27:12;0.90;;;0.90;;
6665;SDS011;3369;49.906;8.598;2023-05-07T00:29:37;1.00;;;1.00;;
6665;SDS011;3369;49.906;8.598;2023-05-07T00:32:03;1.83;;;0.80;;
6665;SDS011;3369;49.906;8.598;2023-05-07T00:34:29;0.83;;;0.83;;
6665;SDS011;3369;49.906;8.598;2023-05-07T00:36:55;1.17;;;1.10;;
6665;SDS011;3369;49.906;8.598;2023-05-07T00:39:21;1.17;;;1.07;;
6665;SDS011;3369;49.906;8.598;2023-05-07T00:41:46;1.30;;;1.20;;
6665;SDS011;3369;49.906;8.598;2023-05-07T00:44:12;1.07;;;1.00;;
6665;SDS011;3369;49.906;8.598;2023-05-07T00:46:39;1.17;;;1.13;;
6665;SDS011;3369;49.906;8.598;2023-05-07T00:49:05;1.10;;;1.00;;
6665;SDS011;3369;49.906;8.598;2023-05-07T00:51:31;1.20;;;1.20;;
6665;SDS011;3369;49.906;8.598;2023-05-07T00:53:57;1.20;;;1.10;;
6665;SDS011;3369;49.906;8.598;2023-05-07T00:56:24;0.87;;;0.87;;
6665;SDS011;3369;49.906;8.598;2023-05-07T00:58:50;1.20;;;1.10;;
6665;SDS011;3369;49.906;8.598;2023-05-07T01:01:16;0.97;;;0.97;;
6665;SDS011;3369;49.906;8.598;2023-05-07T01:03:41;1.00;;;1.00;;
6665;SDS011;3369;49.906;8.598;2023-05-07T01:06:07;0.70;;;0.70;;
6665;SDS011;3369;49.906;8.598;2023-05-07T01:29:57;1.30;;;1.30;;
6665;SDS011;3369;49.906;8.598;2023-05-07T01:32:31;1.47;;;1.37;;
6665;SDS011;3369;49.906;8.598;2023-05-07T01:35:01;1.53;;;1.20;;
6665;SDS011;3369;49.906;8.598;2023-05-07T01:37:28;1.27;;;1.20;;
6665;SDS011;3369;49.906;8.598;2023-05-07T01:39:54;1.43;;;1.33;;
6665;SDS011;3369;49.906;8.598;2023-05-07T01:42:21;1.40;;;1.30;;
6665;SDS011;3369;49.906;8.598;2023-05-07T01:44:47;2.67;;;1.20;;
6665;SDS011;3369;49.906;8.598;2023-05-07T01:47:13;1.23;;;1.13;;
6665;SDS011;3369;49.906;8.598;2023-05-07T01:49:39;1.43;;;1.33;;
6665;SDS011;3369;49.906;8.598;2023-05-07T01:52:06;1.67;;;1.57;;
6665;SDS011;3369;49.906;8.598;2023-05-07T01:54:32;1.50;;;1.40;;
6665;SDS011;3369;49.906;8.598;2023-05-07T01:56:58;0.90;;;0.90;;
6665;SDS011;3369;49.906;8.598;2023-05-07T01:59:23;1.10;;;1.07;;
6665;SDS011;3369;49.906;8.598;2023-05-07T02:01:49;1.10;;;1.00;;
6665;SDS011;3369;49.906;8.598;2023-05-07T02:04:14;1.27;;;1.10;;
6665;SDS011;3369;49.906;8.598;2023-05-07T02:06:40;1.00;;;1.00;;
6665;SDS011;3369;49.906;8.598;2023-05-07T02:09:06;1.10;;;1.10;;
6665;SDS011;3369;49.906;8.598;2023-05-07T02:11:32;1.17;;;1.17;;
6665;SDS011;3369;49.906;8.598;2023-05-07T02:13:57;1.30;;;1.20;;
6665;SDS011;3369;49.906;8.598;2023-05-07T02:16:23;1.20;;;1.10;;
6665;SDS011;3369;49.906;8.598;2023-05-07T02:18:49;1.10;;;1.10;;
6665;SDS011;3369;49.906;8.598;2023-05-07T02:21:14;1.10;;;1.10;;
6665;SDS011;3369;49.906;8.598;2023-05-07T02:23:40;1.33;;;1.23;;
6665;SDS011;3369;49.906;8.598;2023-05-07T02:26:06;1.10;;;1.00;;
6665;SDS011;3369;49.906;8.598;2023-05-07T02:28:31;1.30;;;1.20;;
6665;SDS011;3369;49.906;8.598;2023-05-07T02:30:58;1.40;;;1.30;;
6665;SDS011;3369;49.906;8.598;2023-05-07T02:33:25;1.00;;;1.00;;
6665;SDS011;3369;49.906;8.598;2023-05-07T02:35:51;1.47;;;1.37;;
6665;SDS011;3369;49.906;8.598;2023-05-07T02:38:17;1.40;;;1.30;;
6665;SDS011;3369;49.906;8.598;2023-05-07T02:40:43;1.60;;;1.50;;
6665;SDS011;3369;49.906;8.598;2023-05-07T02:43:08;1.40;;;1.30;;
6665;SDS011;3369;49.906;8.598;2023-05-07T02:45:34;2.40;;;1.60;;
6665;SDS011;3369;49.906;8.598;2023-05-07T02:48:01;4.33;;;2.20;;
6665;SDS011;3369;49.906;8.598;2023-05-07T02:50:26;2.93;;;2.63;;
6665;SDS011;3369;49.906;8.598;2023-05-07T02:52:52;2.40;;;2.20;;
6665;SDS011;3369;49.906;8.598;2023-05-07T02:55:18;1.87;;;1.77;;
6665;SDS011;3369;49.906;8.598;2023-05-07T02:57:43;2.10;;;1.90;;
6665;SDS011;3369;49.906;8.598;2023-05-07T03:00:10;1.60;;;1.50;;
6665;SDS011;3369;49.906;8.598;2023-05-07T03:02:37;1.70;;;1.60;;
6665;SDS011;3369;49.906;8.598;2023-05-07T03:05:02;1.60;;;1.50;;
6665;SDS011;3369;49.906;8.598;2023-05-07T03:07:28;1.70;;;1.60;;
6665;SDS011;3369;49.906;8.598;2023-05-07T03:09:54;1.73;;;1.63;;
6665;SDS011;3369;49.906;8.598;2023-05-07T03:12:19;1.60;;;1.50;;
6665;SDS011;3369;49.906;8.598;2023-05-07T03:14:45;2.30;;;1.70;;
6665;SDS011;3369;49.906;8.598;2023-05-07T03:17:11;1.90;;;1.80;;
6665;SDS011;3369;49.906;8.598;2023-05-07T03:19:36;1.87;;;1.77;;
6665;SDS011;3369;49.906;8.598;2023-05-07T03:22:02;1.93;;;1.77;;
6665;SDS011;3369;49.906;8.598;2023-05-07T03:24:28;1.60;;;1.50;;
6665;SDS011;3369;49.906;8.598;2023-05-07T03:26:53;1.70;;;1.60;;
6665;SDS011;3369;49.906;8.598;2023-05-07T03:29:19;1.50;;;1.40;;
6665;SDS011;3369;49.906;8.598;2023-05-07T03:31:44;1.70;;;1.60;;
6665;SDS011;3369;49.906;8.598;2023-05-07T03:34:10;1.50;;;1.40;;
6665;SDS011;3369;49.906;8.598;2023-05-07T03:36:36;1.60;;;1.50;;
6665;SDS011;3369;49.906;8.598;2023-05-07T03:39:02;1.63;;;1.53;;
6665;SDS011;3369;49.906;8.598;2023-05-07T03:41:27;2.20;;;2.00;;
6665;SDS011;3369;49.906;8.598;2023-05-07T03:43:54;1.80;;;1.70;;
6665;SDS011;3369;49.906;8.598;2023-05-07T03:46:20;1.90;;;1.80;;
6665;SDS011;3369;49.906;8.598;2023-05-07T03:48:45;1.93;;;1.63;;
6665;SDS011;3369;49.906;8.598;2023-05-07T03:51:11;1.90;;;1.80;;
6665;SDS011;3369;49.906;8.598;2023-05-07T03:53:37;1.77;;;1.67;;
6665;SDS011;3369;49.906;8.598;2023-05-07T03:56:02;2.00;;;1.90;;
6665;SDS011;3369;49.906;8.598;2023-05-07T03:58:28;1.90;;;1.77;;
6665;SDS011;3369;49.906;8.598;2023-05-07T04:00:54;2.07;;;1.90;;
6665;SDS011;3369;49.906;8.598;2023-05-07T04:03:19;1.90;;;1.80;;
6665;SDS011;3369;49.906;8.598;2023-05-07T04:05:45;2.53;;;2.07;;
6665;SDS011;3369;49.906;8.598;2023-05-07T04:08:10;2.10;;;1.97;;
6665;SDS011;3369;49.906;8.598;2023-05-07T04:10:36;2.47;;;2.00;;
6665;SDS011;3369;49.906;8.598;2023-05-07T04:13:01;1.80;;;1.70;;
6665;SDS011;3369;49.906;8.598;2023-05-07T04:15:27;1.90;;;1.80;;
6665;SDS011;3369;49.906;8.598;2023-05-07T04:17:52;1.93;;;1.83;;
6665;SDS011;3369;49.906;8.598;2023-05-07T04:20:18;1.73;;;1.63;;
6665;SDS011;3369;49.906;8.598;2023-05-07T04:22:44;2.13;;;1.93;;
6665;SDS011;3369;49.906;8.598;2023-05-07T04:25:10;2.20;;;2.00;;
6665;SDS011;3369;49.906;8.598;2023-05-07T04:27:35;1.93;;;1.73;;
6665;SDS011;3369;49.906;8.598;2023-05-07T04:30:01;2.43;;;1.90;;
6665;SDS011;3369;49.906;8.598;2023-05-07T04:32:27;1.97;;;1.87;;
6665;SDS011;3369;49.906;8.598;2023-05-07T04:34:54;1.83;;;1.73;;
6665;SDS011;3369;49.906;8.598;2023-05-07T04:37:20;1.70;;;1.60;;
6665;SDS011;3369;49.906;8.598;2023-05-07T04:39:46;1.80;;;1.70;;
6665;SDS011;3369;49.906;8.598;2023-05-07T04:42:15;2.00;;;1.90;;
6665;SDS011;3369;49.906;8.598;2023-05-07T04:44:43;2.00;;;1.90;;
6665;SDS011;3369;49.906;8.598;2023-05-07T04:47:10;1.77;;;1.67;;
6665;SDS011;3369;49.906;8.598;2023-05-07T04:49:36;1.90;;;1.80;;
6665;SDS011;3369;49.906;8.598;2023-05-07T04:52:02;1.73;;;1.63;;
6665;SDS011;3369;49.906;8.598;2023-05-07T04:54:28;2.13;;;2.00;;
6665;SDS011;3369;49.906;8.598;2023-05-07T04:56:54;1.70;;;1.60;;
6665;SDS011;3369;49.906;8.598;2023-05-07T04:59:20;1.53;;;1.43;;
6665;SDS011;3369;49.906;8.598;2023-05-07T05:01:46;1.90;;;1.80;;
6665;SDS011;3369;49.906;8.598;2023-05-07T05:04:11;1.70;;;1.60;;
6665;SDS011;3369;49.906;8.598;2023-05-07T05:06:37;1.60;;;1.50;;
6665;SDS011;3369;49.906;8.598;2023-05-07T05:09:03;1.30;;;1.30;;
6665;SDS011;3369;49.906;8.598;2023-05-07T05:11:30;1.50;;;1.40;;
6665;SDS011;3369;49.906;8.598;2023-05-07T05:13:55;2.10;;;1.90;;
6665;SDS011;3369;49.906;8.598;2023-05-07T05:16:21;2.30;;;2.10;;
6665;SDS011;3369;49.906;8.598;2023-05-07T05:18:47;1.50;;;1.50;;
6665;SDS011;3369;49.906;8.598;2023-05-07T05:21:13;1.27;;;1.17;;
6665;SDS011;3369;49.906;8.598;2023-05-07T05:23:38;1.40;;;1.30;;
6665;SDS011;3369;49.906;8.598;2023-05-07T05:26:04;1.40;;;1.30;;
6665;SDS011;3369;49.906;8.598;2023-05-07T05:28:30;1.50;;;1.40;;
6665;SDS011;3369;49.906;8.598;2023-05-07T05:30:55;1.60;;;1.43;;
6665;SDS011;3369;49.906;8.598;2023-05-07T05:33:21;1.30;;;1.20;;
6665;SDS011;3369;49.906;8.598;2023-05-07T05:35:46;1.30;;;1.20;;
6665;SDS011;3369;49.906;8.598;2023-05-07T05:38:12;1.60;;;1.50;;
6665;SDS011;3369;49.906;8.598;2023-05-07T05:40:38;1.50;;;1.40;;
6665;SDS011;3369;49.906;8.598;2023-05-07T05:43:04;1.20;;;1.20;;
6665;SDS011;3369;49.906;8.598;2023-05-07T05:45:30;1.17;;;1.10;;
6665;SDS011;3369;49.906;8.598;2023-05-07T05:47:56;1.40;;;1.30;;
6665;SDS011;3369;49.906;8.598;2023-05-07T05:50:22;1.43;;;1.33;;
6665;SDS011;3369;49.906;8.598;2023-05-07T05:52:48;1.37;;;1.30;;
6665;SDS011;3369;49.906;8.598;2023-05-07T05:55:13;1.70;;;1.60;;
6665;SDS011;3369;49.906;8.598;2023-05-07T05:57:39;1.30;;;1.30;;
6665;SDS011;3369;49.906;8.598;2023-05-07T06:00:05;1.60;;;1.50;;
6665;SDS011;3369;49.906;8.598;2023-05-07T06:02:32;1.40;;;1.30;;
6665;SDS011;3369;49.906;8.598;2023-05-07T06:04:58;2.10;;;1.47;;
6665;SDS011;3369;49.906;8.598;2023-05-07T06:07:24;1.80;;;1.70;;
6665;SDS011;3369;49.906;8.598;2023-05-07T06:09:50;1.40;;;1.30;;
6665;SDS011;3369;49.906;8.598;2023-05-07T06:12:16;1.70;;;1.60;;
6665;SDS011;3369;49.906;8.598;2023-05-07T06:14:44;1.37;;;1.27;;
6665;SDS011;3369;49.906;8.598;2023-05-07T06:17:10;1.77;;;1.40;;
6665;SDS011;3369;49.906;8.598;2023-05-07T06:19:36;1.57;;;1.47;;
6665;SDS011;3369;49.906;8.598;2023-05-07T06:22:01;2.10;;;1.90;;
6665;SDS011;3369;49.906;8.598;2023-05-07T06:24:27;1.23;;;1.23;;
6665;SDS011;3369;49.906;8.598;2023-05-07T06:26:53;1.77;;;1.67;;
6665;SDS011;3369;49.906;8.598;2023-05-07T06:29:19;1.27;;;1.27;;
6665;SDS011;3369;49.906;8.598;2023-05-07T06:31:45;1.53;;;1.43;;
6665;SDS011;3369;49.906;8.598;2023-05-07T06:34:10;1.80;;;1.70;;
6665;SDS011;3369;49.906;8.598;2023-05-07T06:36:39;1.63;;;1.40;;
6665;SDS011;3369;49.906;8.598;2023-05-07T06:39:05;1.63;;;1.53;;
6665;SDS011;3369;49.906;8.598;2023-05-07T06:41:31;1.73;;;1.63;;
6665;SDS011;3369;49.906;8.598;2023-05-07T06:43:56;2.07;;;1.90;;
6665;SDS011;3369;49.906;8.598;2023-05-07T06:46:22;1.93;;;1.83;;
6665;SDS011;3369;49.906;8.598;2023-05-07T06:48:48;2.67;;;1.77;;
6665;SDS011;3369;49.906;8.598;2023-05-07T07:13:16;1.53;;;1.47;;
6665;SDS011;3369;49.906;8.598;2023-05-07T07:15:42;1.90;;;1.80;;
6665;SDS011;3369;49.906;8.598;2023-05-07T07:18:08;1.73;;;1.63;;
6665;SDS011;3369;49.906;8.598;2023-05-07T07:20:34;1.93;;;1.80;;
6665;SDS011;3369;49.906;8.598;2023-05-07T07:23:00;2.20;;;2.00;;
6665;SDS011;3369;49.906;8.598;2023-05-07T07:25:25;1.80;;;1.70;;
6665;SDS011;3369;49.906;8.598;2023-05-07T07:27:51;1.80;;;1.70;;
6665;SDS011;3369;49.906;8.598;2023-05-07T07:30:17;2.03;;;1.70;;
6665;SDS011;3369;49.906;8.598;2023-05-07T07:32:43;4.03;;;1.80;;
6665;SDS011;3369;49.906;8.598;2023-05-07T07:35:08;1.70;;;1.60;;
6665;SDS011;3369;49.906;8.598;2023-05-07T07:37:34;1.83;;;1.70;;
6665;SDS011;3369;49.906;8.598;2023-05-07T07:40:00;1.80;;;1.70;;
6665;SDS011;3369;49.906;8.598;2023-05-07T07:42:26;1.80;;;1.70;;
6665;SDS011;3369;49.906;8.598;2023-05-07T07:44:52;1.70;;;1.60;;
6665;SDS011;3369;49.906;8.598;2023-05-07T07:47:17;1.70;;;1.60;;
6665;SDS011;3369;49.906;8.598;2023-05-07T07:49:43;1.80;;;1.70;;
6665;SDS011;3369;49.906;8.598;2023-05-07T07:52:08;1.80;;;1.70;;
6665;SDS011;3369;49.906;8.598;2023-05-07T07:54:34;2.03;;;1.93;;
6665;SDS011;3369;49.906;8.598;2023-05-07T07:57:00;1.70;;;1.60;;
6665;SDS011;3369;49.906;8.598;2023-05-07T07:59:26;1.73;;;1.63;;
6665;SDS011;3369;49.906;8.598;2023-05-07T08:01:52;2.83;;;1.70;;
6665;SDS011;3369;49.906;8.598;2023-05-07T08:04:20;2.47;;;2.27;;
6665;SDS011;3369;49.906;8.598;2023-05-07T08:06:46;1.70;;;1.60;;
6665;SDS011;3369;49.906;8.598;2023-05-07T08:09:12;2.03;;;1.90;;
6665;SDS011;3369;49.906;8.598;2023-05-07T08:11:37;2.03;;;1.90;;
6665;SDS011;3369;49.906;8.598;2023-05-07T08:14:04;2.73;;;1.97;;
6665;SDS011;3369;49.906;8.598;2023-05-07T08:16:30;2.00;;;1.90;;
6665;SDS011;3369;49.906;8.598;2023-05-07T08:18:55;2.50;;;2.20;;
6665;SDS011;3369;49.906;8.598;2023-05-07T08:21:22;2.87;;;2.10;;
6665;SDS011;3369;49.906;8.598;2023-05-07T08:23:48;2.10;;;2.00;;
6665;SDS011;3369;49.906;8.598;2023-05-07T08:26:13;2.20;;;2.10;;
6665;SDS011;3369;49.906;8.598;2023-05-07T08:28:39;2.00;;;1.90;;
6665;SDS011;3369;49.906;8.598;2023-05-07T08:31:05;2.47;;;2.27;;
6665;SDS011;3369;49.906;8.598;2023-05-07T08:33:31;1.80;;;1.70;;
6665;SDS011;3369;49.906;8.598;2023-05-07T08:35:56;2.30;;;2.20;;
6665;SDS011;3369;49.906;8.598;2023-05-07T08:38:22;2.20;;;2.10;;
6665;SDS011;3369;49.906;8.598;2023-05-07T08:40:47;2.30;;;2.20;;
6665;SDS011;3369;49.906;8.598;2023-05-07T08:43:13;2.63;;;2.43;;
6665;SDS011;3369;49.906;8.598;2023-05-07T08:45:40;2.07;;;1.97;;
6665;SDS011;3369;49.906;8.598;2023-05-07T08:48:10;2.37;;;2.17;;
6665;SDS011;3369;49.906;8.598;2023-05-07T08:50:40;2.20;;;2.10;;
6665;SDS011;3369;49.906;8.598;2023-05-07T08:53:06;2.20;;;2.10;;
6665;SDS011;3369;49.906;8.598;2023-05-07T08:55:31;2.40;;;2.20;;
6665;SDS011;3369;49.906;8.598;2023-05-07T08:57:58;2.20;;;2.10;;
6665;SDS011;3369;49.906;8.598;2023-05-07T09:00:24;2.77;;;2.33;;
6665;SDS011;3369;49.906;8.598;2023-05-07T09:02:52;2.23;;;2.03;;
6665;SDS011;3369;49.906;8.598;2023-05-07T09:05:18;2.20;;;2.10;;
6665;SDS011;3369;49.906;8.598;2023-05-07T09:07:44;2.90;;;2.60;;
6665;SDS011;3369;49.906;8.598;2023-05-07T09:10:11;2.83;;;2.50;;
6665;SDS011;3369;49.906;8.598;2023-05-07T09:12:37;2.20;;;2.10;;
6665;SDS011;3369;49.906;8.598;2023-05-07T09:15:04;2.17;;;2.07;;
6665;SDS011;3369;49.906;8.598;2023-05-07T09:17:30;2.60;;;2.40;;
6665;SDS011;3369;49.906;8.598;2023-05-07T09:19:56;3.13;;;2.70;;
6665;SDS011;3369;49.906;8.598;2023-05-07T09:22:26;2.40;;;2.27;;
6665;SDS011;3369;49.906;8.598;2023-05-07T09:24:52;2.35;;;2.15;;
6665;SDS011;3369;49.906;8.598;2023-05-07T09:27:18;2.17;;;2.07;;
6665;SDS011;3369;49.906;8.598;2023-05-07T09:29:44;2.60;;;2.40;;
6665;SDS011;3369;49.906;8.598;2023-05-07T09:32:10;2.33;;;2.20;;
6665;SDS011;3369;49.906;8.598;2023-05-07T09:34:35;2.00;;;1.90;;
6665;SDS011;3369;49.906;8.598;2023-05-07T09:37:02;2.57;;;2.37;;
6665;SDS011;3369;49.906;8.598;2023-05-07T09:39:38;2.43;;;2.33;;
6665;SDS011;3369;49.906;8.598;2023-05-07T09:42:08;3.25;;;2.40;;
6665;SDS011;3369;49.906;8.598;2023-05-07T09:44:34;2.93;;;2.47;;
6665;SDS011;3369;49.906;8.598;2023-05-07T09:47:00;2.47;;;2.27;;
6665;SDS011;3369;49.906;8.598;2023-05-07T09:49:30;2.47;;;2.30;;
6665;SDS011;3369;49.906;8.598;2023-05-07T09:52:00;2.87;;;2.63;;
6665;SDS011;3369;49.906;8.598;2023-05-07T09:54:26;2.30;;;2.20;;
6665;SDS011;3369;49.906;8.598;2023-05-07T09:56:55;2.43;;;2.23;;
6665;SDS011;3369;49.906;8.598;2023-05-07T09:59:23;2.93;;;2.63;;
6665;SDS011;3369;49.906;8.598;2023-05-07T10:01:50;2.40;;;2.20;;
6665;SDS011;3369;49.906;8.598;2023-05-07T10:04:21;2.67;;;2.47;;
6665;SDS011;3369;49.906;8.598;2023-05-07T10:06:47;2.20;;;2.10;;
6665;SDS011;3369;49.906;8.598;2023-05-07T10:09:13;2.45;;;2.25;;
6665;SDS011;3369;49.906;8.598;2023-05-07T10:11:40;2.47;;;2.13;;
6665;SDS011;3369;49.906;8.598;2023-05-07T10:14:06;2.40;;;2.20;;
6665;SDS011;3369;49.906;8.598;2023-05-07T10:16:32;3.20;;;2.27;;
6665;SDS011;3369;49.906;8.598;2023-05-07T10:19:02;2.40;;;2.30;;
6665;SDS011;3369;49.906;8.598;2023-05-07T10:21:29;2.42;;;2.22;;
6665;SDS011;3369;49.906;8.598;2023-05-07T10:24:03;2.70;;;2.50;;
6665;SDS011;3369;49.906;8.598;2023-05-07T10:26:45;2.90;;;2.53;;
6665;SDS011;3369;49.906;8.598;2023-05-07T10:29:16;2.50;;;2.30;;
6665;SDS011;3369;49.906;8.598;2023-05-07T10:32:07;2.42;;;2.25;;
6665;SDS011;3369;49.906;8.598;2023-05-07T10:34:38;2.35;;;2.20;;
6665;SDS011;3369;49.906;8.598;2023-05-07T10:37:08;2.50;;;2.30;;
6665;SDS011;3369;49.906;8.598;2023-05-07T10:39:35;2.75;;;2.55;;
6665;SDS011;3369;49.906;8.598;2023-05-07T10:42:11;2.80;;;2.60;;
6665;SDS011;3369;49.906;8.598;2023-05-07T10:44:37;2.03;;;1.92;;
6665;SDS011;3369;49.906;8.598;2023-05-07T10:47:04;3.30;;;2.80;;
6665;SDS011;3369;49.906;8.598;2023-05-07T10:49:30;2.97;;;2.65;;
6665;SDS011;3369;49.906;8.598;2023-05-07T10:52:12;3.03;;;2.60;;
6665;SDS011;3369;49.906;8.598;2023-05-07T10:55:18;2.40;;;2.20;;
6665;SDS011;3369;49.906;8.598;2023-05-07T10:57:40;2.60;;;2.38;;
6665;SDS011;3369;49.906;8.598;2023-05-07T11:05:24;2.03;;;1.92;;
6665;SDS011;3369;49.906;8.598;2023-05-07T11:07:54;2.30;;;2.20;;
6665;SDS011;3369;49.906;8.598;2023-05-07T11:10:21;2.40;;;2.15;;
6665;SDS011;3369;49.906;8.598;2023-05-07T11:12:50;2.20;;;2.10;;
6665;SDS011;3369;49.906;8.598;2023-05-07T11:15:38;2.60;;;2.40;;
6665;SDS011;3369;49.906;8.598;2023-05-07T11:18:04;2.13;;;1.92;;
6665;SDS011;3369;49.906;8.598;2023-05-07T11:26:03;1.98;;;1.88;;
6665;SDS011;3369;49.906;8.598;2023-05-07T11:28:30;2.67;;;2.03;;
6665;SDS011;3369;49.906;8.598;2023-05-07T11:31:01;2.90;;;2.53;;
6665;SDS011;3369;49.906;8.598;2023-05-07T11:33:27;2.75;;;1.90;;
6665;SDS011;3369;49.906;8.598;2023-05-07T11:35:54;2.63;;;2.20;;
6665;SDS011;3369;49.906;8.598;2023-05-07T11:38:20;1.95;;;1.73;;
6665;SDS011;3369;49.906;8.598;2023-05-07T11:40:53;1.90;;;1.80;;
6665;SDS011;3369;49.906;8.598;2023-05-07T11:43:23;1.92;;;1.80;;
6665;SDS011;3369;49.906;8.598;2023-05-07T11:45:49;2.00;;;1.90;;
6665;SDS011;3369;49.906;8.598;2023-05-07T11:48:15;2.63;;;2.42;;
6665;SDS011;3369;49.906;8.598;2023-05-07T11:50:59;2.17;;;2.08;;
6665;SDS011;3369;49.906;8.598;2023-05-07T11:53:27;2.17;;;1.70;;
6665;SDS011;3369;49.906;8.598;2023-05-07T11:55:59;1.95;;;1.63;;
6665;SDS011;3369;49.906;8.598;2023-05-07T11:58:25;1.70;;;1.58;;
6665;SDS011;3369;49.906;8.598;2023-05-07T12:00:51;1.58;;;1.48;;
6665;SDS011;3369;49.906;8.598;2023-05-07T12:03:18;1.67;;;1.58;;
6665;SDS011;3369;49.906;8.598;2023-05-07T12:05:44;2.90;;;2.00;;
6665;SDS011;3369;49.906;8.598;2023-05-07T12:08:14;1.70;;;1.60;;
6665;SDS011;3369;49.906;8.598;2023-05-07T12:10:44;2.03;;;1.92;;
6665;SDS011;3369;49.906;8.598;2023-05-07T12:13:17;2.65;;;1.98;;
6665;SDS011;3369;49.906;8.598;2023-05-07T12:15:43;1.90;;;1.80;;
6665;SDS011;3369;49.906;8.598;2023-05-07T12:18:09;1.95;;;1.83;;
6665;SDS011;3369;49.906;8.598;2023-05-07T12:20:39;2.40;;;1.80;;
6665;SDS011;3369;49.906;8.598;2023-05-07T12:23:05;1.65;;;1.55;;
6665;SDS011;3369;49.906;8.598;2023-05-07T12:25:40;1.60;;;1.50;;
6665;SDS011;3369;49.906;8.598;2023-05-07T12:28:17;1.70;;;1.60;;
6665;SDS011;3369;49.906;8.598;2023-05-07T12:30:44;1.88;;;1.70;;
6665;SDS011;3369;49.906;8.598;2023-05-07T12:33:10;1.98;;;1.63;;
6665;SDS011;3369;49.906;8.598;2023-05-07T12:35:37;1.70;;;1.60;;
6665;SDS011;3369;49.906;8.598;2023-05-07T12:38:10;1.80;;;1.48;;
6665;SDS011;3369;49.906;8.598;2023-05-07T12:43:04;4.07;;;1.75;;
6665;SDS011;3369;49.906;8.598;2023-05-07T12:45:30;1.77;;;1.42;;
6665;SDS011;3369;49.906;8.598;2023-05-07T12:47:56;1.75;;;1.63;;
6665;SDS011;3369;49.906;8.598;2023-05-07T12:50:25;3.05;;;1.27;;
6665;SDS011;3369;49.906;8.598;2023-05-07T12:52:55;3.05;;;2.03;;
6665;SDS011;3369;49.906;8.598;2023-05-07T12:55:21;1.80;;;1.70;;
6665;SDS011;3369;49.906;8.598;2023-05-07T12:57:50;1.98;;;1.88;;
6665;SDS011;3369;49.906;8.598;2023-05-07T13:00:16;1.60;;;1.50;;
6665;SDS011;3369;49.906;8.598;2023-05-07T13:02:42;1.60;;;1.50;;
6665;SDS011;3369;49.906;8.598;2023-05-07T13:05:09;1.63;;;1.52;;
6665;SDS011;3369;49.906;8.598;2023-05-07T13:07:35;1.70;;;1.50;;
6665;SDS011;3369;49.906;8.598;2023-05-07T13:30:01;1.98;;;1.88;;
6665;SDS011;3369;49.906;8.598;2023-05-07T13:32:28;1.20;;;1.20;;
6665;SDS011;3369;49.906;8.598;2023-05-07T13:34:53;1.15;;;1.10;;
6665;SDS011;3369;49.906;8.598;2023-05-07T13:37:19;1.48;;;1.38;;
6665;SDS011;3369;49.906;8.598;2023-05-07T13:39:45;1.55;;;1.40;;
6665;SDS011;3369;49.906;8.598;2023-05-07T13:42:10;1.40;;;1.30;;
6665;SDS011;3369;49.906;8.598;2023-05-07T13:44:36;1.75;;;1.45;;
6665;SDS011;3369;49.906;8.598;2023-05-07T13:47:02;2.70;;;1.85;;
6665;SDS011;3369;49.906;8.598;2023-05-07T13:49:27;1.92;;;1.80;;
6665;SDS011;3369;49.906;8.598;2023-05-07T13:51:53;1.45;;;1.45;;
6665;SDS011;3369;49.906;8.598;2023-05-07T13:54:19;2.35;;;1.52;;
6665;SDS011;3369;49.906;8.598;2023-05-07T13:56:44;1.42;;;1.33;;
6665;SDS011;3369;49.906;8.598;2023-05-07T13:59:10;2.63;;;1.50;;
6665;SDS011;3369;49.906;8.598;2023-05-07T14:01:35;1.45;;;1.35;;
6665;SDS011;3369;49.906;8.598;2023-05-07T14:04:01;1.48;;;1.38;;
6665;SDS011;3369;49.906;8.598;2023-05-07T14:06:26;1.45;;;1.35;;
6665;SDS011;3369;49.906;8.598;2023-05-07T14:08:52;1.40;;;1.30;;
6665;SDS011;3369;49.906;8.598;2023-05-07T14:11:18;1.10;;;1.10;;
6665;SDS011;3369;49.906;8.598;2023-05-07T14:13:43;1.58;;;1.48;;
6665;SDS011;3369;49.906;8.598;2023-05-07T14:16:09;1.38;;;1.27;;
6665;SDS011;3369;49.906;8.598;2023-05-07T14:18:35;1.58;;;1.48;;
6665;SDS011;3369;49.906;8.598;2023-05-07T14:21:02;1.33;;;1.27;;
6665;SDS011;3369;49.906;8.598;2023-05-07T14:23:27;1.50;;;1.40;;
6665;SDS011;3369;49.906;8.598;2023-05-07T14:25:53;1.45;;;1.35;;
6665;SDS011;3369;49.906;8.598;2023-05-07T14:28:19;1.40;;;1.30;;
6665;SDS011;3369;49.906;8.598;2023-05-07T14:30:45;1.33;;;1.23;;
6665;SDS011;3369;49.906;8.598;2023-05-07T14:33:10;1.27;;;1.17;;
6665;SDS011;3369;49.906;8.598;2023-05-07T14:35:36;1.10;;;1.10;;
6665;SDS011;3369;49.906;8.598;2023-05-07T14:38:01;1.25;;;1.23;;
6665;SDS011;3369;49.906;8.598;2023-05-07T14:40:27;1.45;;;1.35;;
6665;SDS011;3369;49.906;8.598;2023-05-07T14:42:53;2.58;;;1.40;;
6665;SDS011;3369;49.906;8.598;2023-05-07T14:45:18;1.40;;;1.30;;
6665;SDS011;3369;49.906;8.598;2023-05-07T14:47:45;1.40;;;1.30;;
6665;SDS011;3369;49.906;8.598;2023-05-07T14:50:11;1.50;;;1.40;;
6665;SDS011;3369;49.906;8.598;2023-05-07T14:52:37;1.70;;;1.60;;
6665;SDS011;3369;49.906;8.598;2023-05-07T14:55:02;1.42;;;1.33;;
6665;SDS011;3369;49.906;8.598;2023-05-07T14:57:28;1.67;;;1.58;;
6665;SDS011;3369;49.906;8.598;2023-05-07T14:59:55;1.25;;;1.25;;
6665;SDS011;3369;49.906;8.598;2023-05-07T15:02:20;1.63;;;1.52;;
6665;SDS011;3369;49.906;8.598;2023-05-07T15:04:46;1.45;;;1.35;;
6665;SDS011;3369;49.906;8.598;2023-05-07T15:07:12;1.80;;;1.58;;
6665;SDS011;3369;49.906;8.598;2023-05-07T15:09:42;1.60;;;1.50;;
6665;SDS011;3369;49.906;8.598;2023-05-07T15:12:08;1.98;;;1.60;;
6665;SDS011;3369;49.906;8.598;2023-05-07T15:14:33;1.98;;;1.30;;
6665;SDS011;3369;49.906;8.598;2023-05-07T15:16:59;1.88;;;1.40;;
6665;SDS011;3369;49.906;8.598;2023-05-07T15:19:25;1.42;;;1.30;;
6665;SDS011;3369;49.906;8.598;2023-05-07T15:21:54;1.88;;;1.63;;
6665;SDS011;3369;49.906;8.598;2023-05-07T15:24:21;1.70;;;1.10;;
6665;SDS011;3369;49.906;8.598;2023-05-07T15:26:47;1.25;;;1.15;;
6665;SDS011;3369;49.906;8.598;2023-05-07T15:29:13;1.95;;;1.38;;
6665;SDS011;3369;49.906;8.598;2023-05-07T15:31:39;2.22;;;1.20;;
6665;SDS011;3369;49.906;8.598;2023-05-07T15:34:04;2.95;;;1.50;;
6665;SDS011;3369;49.906;8.598;2023-05-07T15:36:30;1.60;;;1.50;;
6665;SDS011;3369;49.906;8.598;2023-05-07T15:38:56;2.05;;;1.80;;
6665;SDS011;3369;49.906;8.598;2023-05-07T15:41:22;1.70;;;1.60;;
6665;SDS011;3369;49.906;8.598;2023-05-07T15:43:48;2.03;;;1.50;;
6665;SDS011;3369;49.906;8.598;2023-05-07T15:46:19;1.58;;;1.48;;
6665;SDS011;3369;49.906;8.598;2023-05-07T15:48:48;3.40;;;1.65;;
6665;SDS011;3369;49.906;8.598;2023-05-07T15:51:14;1.83;;;1.48;;
6665;SDS011;3369;49.906;8.598;2023-05-07T15:53:40;1.85;;;1.52;;
6665;SDS011;3369;49.906;8.598;2023-05-07T15:56:06;1.75;;;1.58;;
6665;SDS011;3369;49.906;8.598;2023-05-07T15:58:31;1.90;;;1.73;;
6665;SDS011;3369;49.906;8.598;2023-05-07T16:00:58;5.93;;;2.00;;
6665;SDS011;3369;49.906;8.598;2023-05-07T16:03:24;1.73;;;1.63;;
6665;SDS011;3369;49.906;8.598;2023-05-07T16:05:51;2.53;;;1.77;;
6665;SDS011;3369;49.906;8.598;2023-05-07T16:08:17;4.97;;;1.83;;
6665;SDS011;3369;49.906;8.598;2023-05-07T16:10:43;3.97;;;1.80;;
6665;SDS011;3369;49.906;8.598;2023-05-07T16:13:09;1.98;;;1.80;;
6665;SDS011;3369;49.906;8.598;2023-05-07T16:15:35;3.10;;;2.13;;
6665;SDS011;3369;49.906;8.598;2023-05-07T16:18:01;2.90;;;1.80;;
6665;SDS011;3369;49.906;8.598;2023-05-07T16:20:27;2.23;;;1.70;;
6665;SDS011;3369;49.906;8.598;2023-05-07T16:22:56;1.80;;;1.60;;
6665;SDS011;3369;49.906;8.598;2023-05-07T16:25:22;2.10;;;1.60;;
6665;SDS011;3369;49.906;8.598;2023-05-07T16:27:48;4.60;;;1.90;;